Time;durP1;ratioP1;P1;durP2;ratioP2;P2;SDS_P1;SDS_P2;PMS_P1;PMS_P2;Temp;Humidity;BMP_temperature;BMP_pressure;BME280_temperature;BME280_humidity;BME280_pressure;Samples;Min_cycle;Max_cycle;Signal;HPM_P1;HPM_P2
2021/05/13 00:00:26;;;;;;;3.58;0.80;;;14.10;64.80;;;;;;5069015;28;20024;-86
2021/05/13 00:02:52;;;;;;;4.88;1.10;;;14.00;65.20;;;;;;5062371;28;20451;-85
2021/05/13 00:05:17;;;;;;;4.97;1.33;;;14.00;65.30;;;;;;5070209;28;20027;-85
2021/05/13 00:07:43;;;;;;;1.83;0.73;;;14.00;65.90;;;;;;5072160;28;20035;-86
2021/05/13 00:10:14;;;;;;;6.85;1.00;;;14.00;65.40;;;;;;5068024;28;20103;-87
2021/05/13 00:15:14;;;;;;;4.28;1.08;;;13.90;65.70;;;;;;5067710;28;20449;-86
2021/05/13 00:17:39;;;;;;;1.05;0.65;;;13.90;66.00;;;;;;5056167;28;20031;-85
2021/05/13 00:20:08;;;;;;;4.30;1.10;;;13.80;66.10;;;;;;5070713;28;20026;-86
2021/05/13 00:22:34;;;;;;;2.33;0.60;;;13.80;66.50;;;;;;5069166;28;20044;-86
2021/05/13 00:25:00;;;;;;;2.67;0.90;;;13.70;66.50;;;;;;5067955;28;20044;-86
2021/05/13 00:27:26;;;;;;;3.63;0.95;;;13.70;66.80;;;;;;5069438;28;20043;-87
2021/05/13 00:29:52;;;;;;;2.15;0.80;;;13.70;66.90;;;;;;5068350;28;20028;-86
2021/05/13 00:32:18;;;;;;;1.50;0.75;;;13.60;67.30;;;;;;5065768;28;20025;-86
2021/05/13 00:34:43;;;;;;;5.25;1.13;;;13.60;67.40;;;;;;5069798;28;20032;-86
2021/05/13 00:37:09;;;;;;;3.80;0.82;;;13.50;67.40;;;;;;5064730;28;20523;-86
2021/05/13 00:39:34;;;;;;;1.92;0.57;;;13.50;67.60;;;;;;5060697;28;20415;-86
2021/05/13 00:42:00;;;;;;;3.30;0.82;;;13.50;67.80;;;;;;5067220;28;20468;-86
2021/05/13 00:44:26;;;;;;;1.88;1.00;;;13.40;68.00;;;;;;5052792;28;20468;-86
2021/05/13 00:46:52;;;;;;;3.15;1.02;;;13.40;68.20;;;;;;5070956;28;20468;-87
2021/05/13 00:49:20;;;;;;;5.03;1.20;;;13.40;68.40;;;;;;5067836;28;20120;-86
2021/05/13 00:51:45;;;;;;;3.45;1.20;;;13.30;68.40;;;;;;5067149;28;20024;-87
2021/05/13 00:54:12;;;;;;;7.05;1.20;;;13.30;68.60;;;;;;5068078;28;20052;-85
2021/05/13 00:56:38;;;;;;;2.65;1.20;;;13.20;68.70;;;;;;5065964;28;20021;-86
2021/05/13 00:59:09;;;;;;;6.32;0.90;;;13.30;68.80;;;;;;5059858;28;20490;-86
2021/05/13 01:01:53;;;;;;;2.58;0.93;;;13.20;69.00;;;;;;5064526;28;20017;-86
2021/05/13 01:04:20;;;;;;;2.33;1.10;;;13.20;69.60;;;;;;5066935;28;20025;-87
2021/05/13 01:06:47;;;;;;;3.60;1.55;;;13.10;69.30;;;;;;5068975;28;20068;-88
2021/05/13 01:09:19;;;;;;;4.25;0.82;;;13.10;69.50;;;;;;5069210;28;20141;-86
2021/05/13 01:11:49;;;;;;;2.55;0.80;;;13.10;69.50;;;;;;5069835;28;20430;-87
2021/05/13 01:14:28;;;;;;;5.03;0.90;;;13.00;69.70;;;;;;5070094;28;20020;-87
2021/05/13 01:19:48;;;;;;;3.45;1.25;;;13.00;70.10;;;;;;5070954;28;20040;-87
2021/05/13 01:22:19;;;;;;;2.95;1.02;;;12.90;70.20;;;;;;5067216;28;20072;-86
2021/05/13 01:24:45;;;;;;;4.38;1.10;;;12.80;70.40;;;;;;5067487;28;20028;-86
2021/05/13 01:27:10;;;;;;;6.45;1.15;;;12.80;70.70;;;;;;5065546;28;20438;-86
2021/05/13 01:29:36;;;;;;;2.88;0.95;;;12.80;70.80;;;;;;5066696;28;20029;-87
2021/05/13 01:32:02;;;;;;;2.80;0.75;;;12.70;70.80;;;;;;5068184;28;20107;-86
2021/05/13 01:34:28;;;;;;;3.95;1.00;;;12.70;71.00;;;;;;5068403;28;20099;-87
2021/05/13 01:36:54;;;;;;;2.53;1.10;;;12.60;71.40;;;;;;5069218;28;20021;-87
2021/05/13 01:39:20;;;;;;;7.53;1.10;;;12.60;71.40;;;;;;5067263;28;20055;-87
2021/05/13 01:41:46;;;;;;;4.70;1.17;;;12.60;71.60;;;;;;5069895;28;20060;-87
2021/05/13 01:44:12;;;;;;;3.22;0.98;;;12.60;71.50;;;;;;5071459;28;20060;-86
2021/05/13 01:46:39;;;;;;;5.32;1.00;;;12.50;71.80;;;;;;5071806;28;20558;-88
2021/05/13 01:49:05;;;;;;;3.78;1.08;;;12.50;72.50;;;;;;5069027;28;20446;-85
2021/05/13 01:51:31;;;;;;;2.42;1.10;;;12.50;72.20;;;;;;5072649;28;20111;-86
2021/05/13 01:53:57;;;;;;;3.10;0.80;;;12.40;72.50;;;;;;5071451;28;20021;-86
2021/05/13 01:56:23;;;;;;;2.25;0.90;;;12.30;73.30;;;;;;5072161;28;20793;-86
2021/05/13 01:58:49;;;;;;;2.28;1.00;;;12.20;74.30;;;;;;5074478;28;20047;-87
2021/05/13 02:01:15;;;;;;;6.38;0.95;;;12.10;74.70;;;;;;5071289;28;20421;-86
2021/05/13 02:03:43;;;;;;;2.08;0.70;;;12.00;74.90;;;;;;5071842;28;20077;-85
2021/05/13 02:06:10;;;;;;;2.75;1.00;;;11.90;75.20;;;;;;5068132;28;20044;-87
2021/05/13 02:08:36;;;;;;;2.65;0.80;;;11.80;76.10;;;;;;5063293;28;20123;-87
2021/05/13 02:11:02;;;;;;;2.50;1.00;;;11.70;76.40;;;;;;5072471;28;20103;-86
2021/05/13 02:13:28;;;;;;;2.28;1.10;;;11.70;76.40;;;;;;5071658;28;20028;-86
2021/05/13 02:15:54;;;;;;;7.43;1.58;;;11.60;77.50;;;;;;5070572;28;20028;-86
2021/05/13 02:18:22;;;;;;;4.35;1.05;;;11.50;77.70;;;;;;5070484;28;20468;-86
2021/05/13 02:20:49;;;;;;;4.85;1.17;;;11.50;77.90;;;;;;5072034;28;20048;-87
2021/05/13 02:23:15;;;;;;;3.28;1.10;;;11.60;77.40;;;;;;5072659;28;20024;-87
2021/05/13 02:25:45;;;;;;;2.72;0.85;;;11.60;77.10;;;;;;5065595;28;20107;-86
2021/05/13 02:28:10;;;;;;;2.25;0.85;;;11.50;77.00;;;;;;5071685;28;20037;-86
2021/05/13 02:30:36;;;;;;;5.63;1.27;;;11.50;77.40;;;;;;5064818;28;20074;-86
2021/05/13 02:33:02;;;;;;;1.88;1.05;;;11.50;77.50;;;;;;5069100;28;20376;-86
2021/05/13 02:35:28;;;;;;;1.05;0.80;;;11.40;77.90;;;;;;5069511;28;20064;-85
2021/05/13 02:37:53;;;;;;;7.30;2.83;;;11.30;78.30;;;;;;5073436;28;20059;-84
2021/05/13 02:40:19;;;;;;;4.53;1.13;;;11.20;78.00;;;;;;5070375;28;20494;-84
2021/05/13 02:42:45;;;;;;;2.95;0.90;;;11.10;78.70;;;;;;5066197;28;20044;-86
2021/05/13 02:45:12;;;;;;;1.20;0.90;;;11.10;79.00;;;;;;5069948;28;20035;-85
2021/05/13 02:47:38;;;;;;;2.88;1.25;;;11.00;79.70;;;;;;5070303;28;20143;-85
2021/05/13 02:50:06;;;;;;;3.40;1.00;;;11.00;79.70;;;;;;5073163;28;20516;-85
2021/05/13 02:52:31;;;;;;;2.83;0.88;;;11.00;80.00;;;;;;5062023;28;20021;-87
2021/05/13 02:54:57;;;;;;;4.32;1.00;;;10.90;80.30;;;;;;5066480;28;20446;-85
2021/05/13 02:57:23;;;;;;;2.85;1.00;;;10.90;80.00;;;;;;5069304;28;20452;-84
2021/05/13 02:59:52;;;;;;;4.85;1.33;;;10.80;80.80;;;;;;5069785;28;20040;-85
2021/05/13 03:02:18;;;;;;;4.90;1.10;;;10.80;81.00;;;;;;5069986;28;20020;-84
2021/05/13 03:04:44;;;;;;;5.63;1.55;;;10.80;80.60;;;;;;5072961;28;20043;-85
2021/05/13 03:07:10;;;;;;;1.88;1.00;;;10.80;80.50;;;;;;5069289;28;20058;-84
2021/05/13 03:09:47;;;;;;;5.55;1.10;;;10.80;81.10;;;;;;5068849;28;20032;-85
2021/05/13 03:12:13;;;;;;;5.40;1.20;;;10.80;81.00;;;;;;5070824;28;20127;-85
2021/05/13 03:14:39;;;;;;;2.88;1.00;;;10.80;81.00;;;;;;5069097;28;20523;-85
2021/05/13 03:17:04;;;;;;;5.57;0.80;;;10.80;81.20;;;;;;5072233;28;20024;-85
2021/05/13 03:19:40;;;;;;;3.17;1.00;;;11.00;80.20;;;;;;5070610;28;20492;-86
2021/05/13 03:22:10;;;;;;;3.53;1.10;;;11.00;79.90;;;;;;5070164;28;20460;-86
2021/05/13 03:24:49;;;;;;;4.07;2.07;;;11.10;79.50;;;;;;5069052;28;20560;-87
2021/05/13 03:27:28;;;;;;;4.28;1.08;;;11.10;79.70;;;;;;5068166;28;20029;-86
2021/05/13 03:29:54;;;;;;;3.38;1.20;;;11.20;79.30;;;;;;5060900;28;20030;-85
2021/05/13 03:32:20;;;;;;;3.60;0.95;;;11.20;79.30;;;;;;5062155;28;20033;-86
2021/05/13 03:34:46;;;;;;;1.55;0.77;;;11.20;79.10;;;;;;5071149;28;20040;-85
2021/05/13 03:37:12;;;;;;;4.75;1.35;;;11.20;79.30;;;;;;5068539;28;20017;-86
2021/05/13 03:39:38;;;;;;;5.97;1.30;;;11.20;80.50;;;;;;5069709;28;20047;-85
2021/05/13 03:42:04;;;;;;;6.53;1.30;;;11.20;81.10;;;;;;5069313;28;20091;-84
2021/05/13 03:44:30;;;;;;;3.88;1.00;;;11.20;81.80;;;;;;5065188;28;20016;-85
2021/05/13 03:46:55;;;;;;;3.78;1.08;;;11.40;81.60;;;;;;5058188;28;20541;-84
2021/05/13 03:49:24;;;;;;;5.95;1.17;;;11.70;80.40;;;;;;5070850;28;20032;-85
2021/05/13 03:51:50;;;;;;;6.18;1.20;;;12.00;78.70;;;;;;5070783;28;21314;-84
2021/05/13 03:54:17;;;;;;;1.80;1.15;;;12.70;76.70;;;;;;5071260;28;20497;-85
2021/05/13 03:56:43;;;;;;;5.53;0.85;;;13.60;72.60;;;;;;5065659;28;20031;-84
2021/05/13 03:59:16;;;;;;;2.13;0.90;;;14.30;70.00;;;;;;5069103;28;20064;-85
2021/05/13 04:04:08;;;;;;;5.78;0.93;;;15.00;66.60;;;;;;5067926;28;20079;-84
2021/05/13 04:06:33;;;;;;;4.82;0.88;;;15.60;65.70;;;;;;5068972;28;20028;-86
2021/05/13 04:08:59;;;;;;;3.72;1.08;;;16.10;63.50;;;;;;5070446;28;20025;-87
2021/05/13 04:11:25;;;;;;;3.33;1.00;;;16.50;62.10;;;;;;5070708;28;20027;-86
2021/05/13 04:13:52;;;;;;;2.08;0.90;;;17.00;60.90;;;;;;5071536;28;20025;-85
2021/05/13 04:16:25;;;;;;;2.35;1.10;;;17.20;60.00;;;;;;5068663;28;20039;-85
2021/05/13 04:18:51;;;;;;;3.40;0.98;;;17.50;59.10;;;;;;5068275;28;20025;-86
2021/05/13 04:21:17;;;;;;;6.25;1.27;;;17.80;58.20;;;;;;5067610;28;20078;-86
2021/05/13 04:23:42;;;;;;;2.35;1.15;;;18.10;57.90;;;;;;5069735;28;20074;-85
2021/05/13 04:26:08;;;;;;;9.07;2.08;;;18.00;57.20;;;;;;5064261;28;20105;-85
2021/05/13 04:28:34;;;;;;;1.60;1.10;;;18.30;56.70;;;;;;5069035;28;20074;-85
2021/05/13 04:30:59;;;;;;;2.03;1.23;;;18.30;56.40;;;;;;5068088;28;20062;-86
2021/05/13 04:33:25;;;;;;;2.40;1.00;;;18.30;55.90;;;;;;5065912;28;20146;-84
2021/05/13 04:35:51;;;;;;;2.78;0.80;;;17.60;57.30;;;;;;5054130;28;20531;-85
2021/05/13 04:38:18;;;;;;;4.25;1.02;;;17.10;59.30;;;;;;5055360;28;20037;-85
2021/05/13 04:40:44;;;;;;;5.13;0.90;;;16.50;61.50;;;;;;5068293;28;20070;-85
2021/05/13 04:43:10;;;;;;;2.33;1.08;;;16.00;62.50;;;;;;5066091;28;20016;-85
2021/05/13 04:45:35;;;;;;;3.97;0.77;;;15.60;63.70;;;;;;5069656;28;20082;-85
2021/05/13 04:50:27;;;;;;;1.95;0.80;;;15.10;66.10;;;;;;5068966;28;20025;-84
2021/05/13 04:52:53;;;;;;;2.92;0.73;;;14.90;66.40;;;;;;5060159;28;20056;-84
2021/05/13 04:55:19;;;;;;;2.85;0.70;;;14.80;67.80;;;;;;5066624;28;20048;-84
2021/05/13 04:57:44;;;;;;;2.20;0.85;;;14.70;67.30;;;;;;5065366;28;20024;-85
2021/05/13 05:00:12;;;;;;;2.35;0.93;;;14.70;66.90;;;;;;5067029;28;20044;-85
2021/05/13 05:02:38;;;;;;;3.47;1.10;;;14.60;67.40;;;;;;5068575;28;20079;-84
2021/05/13 05:05:05;;;;;;;3.72;1.33;;;14.60;67.90;;;;;;5066855;28;20115;-85
2021/05/13 05:07:31;;;;;;;1.25;0.90;;;14.60;68.10;;;;;;5067905;28;20372;-86
2021/05/13 05:09:57;;;;;;;6.43;0.95;;;14.60;68.50;;;;;;5066827;28;20082;-85
2021/05/13 05:12:22;;;;;;;2.30;0.80;;;14.60;68.10;;;;;;5068113;28;20056;-85
2021/05/13 05:14:48;;;;;;;2.30;0.82;;;14.70;67.30;;;;;;5066870;28;20074;-84
2021/05/13 05:17:14;;;;;;;6.82;0.88;;;14.70;67.00;;;;;;5069481;28;20491;-85
2021/05/13 05:19:39;;;;;;;10.52;0.80;;;14.70;67.30;;;;;;5069611;28;20498;-86
2021/05/13 05:22:06;;;;;;;9.38;0.93;;;14.70;67.60;;;;;;5068754;28;20051;-84
2021/05/13 05:24:32;;;;;;;7.53;0.98;;;14.70;67.60;;;;;;5068622;28;20040;-85
2021/05/13 05:26:58;;;;;;;5.28;1.05;;;14.80;68.00;;;;;;5069036;28;20087;-84
2021/05/13 05:29:23;;;;;;;6.10;1.30;;;14.90;68.80;;;;;;5068647;28;20105;-86
2021/05/13 05:31:49;;;;;;;5.07;1.20;;;14.90;66.30;;;;;;5054048;28;20476;-85
2021/05/13 05:34:15;;;;;;;1.10;0.60;;;14.90;66.20;;;;;;5067221;28;20063;-85
2021/05/13 05:36:40;;;;;;;5.35;1.20;;;14.90;66.10;;;;;;5066351;28;20467;-85
2021/05/13 05:39:06;;;;;;;7.70;1.33;;;15.00;68.50;;;;;;5066910;28;20089;-85
2021/05/13 05:41:32;;;;;;;2.55;0.70;;;15.10;68.10;;;;;;5067183;28;20013;-84
2021/05/13 05:43:58;;;;;;;2.45;0.82;;;15.20;67.80;;;;;;5070509;28;20415;-85
2021/05/13 05:46:24;;;;;;;2.50;0.95;;;15.30;66.50;;;;;;5056715;28;20037;-86
2021/05/13 05:48:50;;;;;;;3.75;1.08;;;15.40;65.90;;;;;;5068866;28;20473;-84
2021/05/13 05:51:16;;;;;;;4.60;1.08;;;15.40;66.30;;;;;;5066412;28;20058;-85
2021/05/13 05:53:42;;;;;;;6.15;0.90;;;15.40;65.50;;;;;;5069389;28;20472;-85
2021/05/13 05:56:07;;;;;;;2.05;0.73;;;15.50;65.30;;;;;;5069679;28;20501;-85
2021/05/13 05:58:33;;;;;;;5.72;1.05;;;15.50;66.80;;;;;;5068847;28;20418;-85
2021/05/13 06:00:59;;;;;;;3.85;0.90;;;15.60;64.70;;;;;;5061201;28;20143;-85
2021/05/13 06:03:25;;;;;;;2.85;0.85;;;15.60;66.60;;;;;;5064989;28;20025;-84
2021/05/13 06:05:51;;;;;;;2.92;0.90;;;15.70;65.80;;;;;;5066977;28;20104;-84
2021/05/13 06:08:16;;;;;;;3.88;0.95;;;15.80;65.60;;;;;;5068842;28;20115;-84
2021/05/13 06:10:42;;;;;;;8.70;1.17;;;15.90;64.70;;;;;;5068605;28;20033;-85
2021/05/13 06:13:08;;;;;;;2.55;0.70;;;16.00;64.60;;;;;;5066162;28;20518;-86
2021/05/13 06:15:34;;;;;;;3.60;0.95;;;16.00;64.90;;;;;;5067846;28;20024;-85
2021/05/13 06:18:00;;;;;;;3.13;0.95;;;16.10;65.30;;;;;;5067899;28;20032;-84
2021/05/13 06:20:31;;;;;;;3.78;1.00;;;16.10;64.30;;;;;;5067827;28;20028;-85
2021/05/13 06:22:57;;;;;;;2.42;1.05;;;16.10;64.00;;;;;;5067413;28;20048;-83
2021/05/13 06:25:25;;;;;;;5.18;0.80;;;16.10;64.60;;;;;;5066689;28;20074;-84
2021/05/13 06:27:51;;;;;;;1.98;1.05;;;16.20;63.80;;;;;;5070238;28;20047;-86
2021/05/13 06:30:19;;;;;;;4.03;1.00;;;16.20;63.80;;;;;;5071774;28;20020;-84
2021/05/13 06:32:46;;;;;;;2.92;0.80;;;16.20;63.20;;;;;;5060760;28;20028;-85
2021/05/13 06:35:14;;;;;;;7.70;1.55;;;16.10;65.20;;;;;;5072097;28;20033;-86
2021/05/13 06:37:39;;;;;;;3.38;0.90;;;16.30;64.80;;;;;;5070888;28;20028;-85
2021/05/13 06:40:06;;;;;;;2.92;0.85;;;16.40;63.70;;;;;;5070533;28;20494;-85
2021/05/13 06:42:32;;;;;;;4.43;0.70;;;16.50;62.80;;;;;;5065488;28;20023;-86
2021/05/13 06:44:58;;;;;;;4.80;1.35;;;16.40;62.80;;;;;;5068396;28;20028;-86
2021/05/13 06:47:24;;;;;;;3.92;0.80;;;16.40;63.60;;;;;;5063123;28;20395;-86
2021/05/13 06:49:49;;;;;;;6.70;1.00;;;16.50;62.70;;;;;;5072235;28;20028;-86
2021/05/13 06:52:18;;;;;;;1.98;0.63;;;16.60;62.60;;;;;;5069460;28;20089;-86
2021/05/13 06:54:45;;;;;;;3.30;0.93;;;16.70;63.60;;;;;;5069006;28;20112;-86
2021/05/13 06:57:10;;;;;;;1.50;0.90;;;16.70;62.80;;;;;;5069457;28;20592;-84
2021/05/13 06:59:38;;;;;;;4.75;0.95;;;16.70;62.40;;;;;;5069609;28;20031;-84
2021/05/13 07:02:04;;;;;;;3.75;0.90;;;16.80;62.00;;;;;;5072195;28;20024;-83
2021/05/13 07:04:31;;;;;;;1.70;0.95;;;16.90;62.50;;;;;;5070910;28;20025;-85
2021/05/13 07:06:57;;;;;;;2.78;0.85;;;16.90;62.10;;;;;;5071193;28;20093;-84
2021/05/13 07:09:24;;;;;;;5.72;0.82;;;17.00;61.70;;;;;;5069858;28;20059;-84
2021/05/13 07:11:49;;;;;;;1.83;0.98;;;17.00;62.30;;;;;;5070669;28;20077;-84
2021/05/13 07:14:15;;;;;;;5.05;0.88;;;17.10;62.10;;;;;;5071792;28;20422;-84
2021/05/13 07:16:41;;;;;;;3.72;0.90;;;17.10;60.80;;;;;;5070316;28;20116;-84
2021/05/13 07:19:07;;;;;;;4.03;0.65;;;17.20;59.50;;;;;;5068230;28;20067;-83
2021/05/13 07:21:33;;;;;;;3.17;1.13;;;17.10;60.00;;;;;;5064632;28;20471;-87
2021/05/13 07:24:00;;;;;;;2.15;0.60;;;17.20;62.00;;;;;;5066519;28;20028;-84
2021/05/13 07:26:26;;;;;;;1.60;0.50;;;17.30;60.70;;;;;;5067823;28;20119;-84
2021/05/13 07:28:52;;;;;;;6.30;0.80;;;17.40;61.60;;;;;;5059392;28;20567;-84
2021/05/13 07:31:19;;;;;;;3.35;0.70;;;17.60;61.00;;;;;;5065540;28;20108;-84
2021/05/13 07:33:44;;;;;;;3.47;0.82;;;17.60;58.90;;;;;;5066019;28;20025;-83
2021/05/13 07:36:10;;;;;;;3.10;0.93;;;17.60;60.50;;;;;;5064362;28;20404;-83
2021/05/13 07:38:36;;;;;;;1.73;1.20;;;17.70;59.40;;;;;;5064821;28;20483;-84
2021/05/13 07:41:05;;;;;;;1.80;0.60;;;17.80;59.40;;;;;;5072032;28;20108;-86
2021/05/13 07:43:30;;;;;;;3.30;0.70;;;17.80;59.50;;;;;;5068328;28;20016;-85
2021/05/13 07:45:56;;;;;;;5.65;1.02;;;17.80;59.80;;;;;;5066185;28;20365;-85
2021/05/13 07:48:25;;;;;;;5.68;0.93;;;18.00;60.40;;;;;;5067102;28;20035;-85
2021/05/13 07:50:51;;;;;;;5.87;0.70;;;18.00;59.60;;;;;;5042884;28;20473;-85
2021/05/13 07:53:17;;;;;;;5.13;0.82;;;18.10;60.00;;;;;;5061097;28;20118;-85
2021/05/13 07:55:42;;;;;;;1.58;0.77;;;18.30;58.70;;;;;;5066346;28;20019;-85
2021/05/13 07:58:09;;;;;;;3.15;0.47;;;18.40;57.80;;;;;;5063240;28;20024;-83
2021/05/13 08:00:35;;;;;;;3.30;0.43;;;18.40;58.20;;;;;;5059068;28;20020;-85
2021/05/13 08:03:00;;;;;;;2.83;0.75;;;18.40;59.20;;;;;;5061789;28;20027;-85
2021/05/13 08:05:26;;;;;;;3.58;0.90;;;18.40;57.20;;;;;;5062120;28;20140;-85
2021/05/13 08:07:52;;;;;;;4.53;0.68;;;18.50;57.10;;;;;;5059784;28;20033;-84
2021/05/13 08:10:18;;;;;;;7.68;0.90;;;18.60;55.70;;;;;;5058455;28;20024;-83
2021/05/13 08:12:44;;;;;;;3.28;0.90;;;18.50;56.90;;;;;;5059212;28;20065;-83
2021/05/13 08:15:12;;;;;;;2.00;0.68;;;18.40;56.10;;;;;;5063319;28;20094;-84
2021/05/13 08:17:39;;;;;;;6.78;1.02;;;18.50;56.80;;;;;;5057470;28;20240;-86
2021/05/13 08:20:07;;;;;;;2.70;0.85;;;18.60;56.20;;;;;;5058426;28;20039;-85
2021/05/13 08:22:33;;;;;;;9.32;1.35;;;18.70;57.30;;;;;;5062360;28;20041;-85
2021/05/13 08:24:59;;;;;;;3.10;0.95;;;18.60;55.10;;;;;;5058169;28;20032;-85
2021/05/13 08:27:25;;;;;;;6.15;1.20;;;18.70;56.00;;;;;;5061856;28;20048;-84
2021/05/13 08:29:51;;;;;;;7.30;0.40;;;18.80;56.20;;;;;;5058515;28;20020;-85
2021/05/13 08:32:16;;;;;;;1.27;0.40;;;19.00;56.00;;;;;;5055420;28;20029;-85
2021/05/13 08:34:42;;;;;;;3.33;0.57;;;19.00;52.80;;;;;;5060312;28;20024;-85
2021/05/13 08:37:08;;;;;;;2.00;0.60;;;19.00;51.80;;;;;;5053827;28;20529;-84
2021/05/13 08:39:33;;;;;;;5.13;0.52;;;19.00;52.50;;;;;;5062271;28;20050;-84
2021/05/13 08:42:03;;;;;;;1.27;0.30;;;19.00;53.20;;;;;;5059207;28;20726;-85
2021/05/13 08:44:29;;;;;;;2.80;0.50;;;19.00;54.00;;;;;;5060790;28;20028;-83
2021/05/13 08:46:58;;;;;;;1.10;0.30;;;19.10;53.90;;;;;;5063102;28;20101;-82
2021/05/13 08:49:26;;;;;;;4.47;0.50;;;19.30;52.10;;;;;;5061216;28;20017;-84
2021/05/13 08:51:53;;;;;;;3.13;0.47;;;19.30;52.70;;;;;;5056496;28;20028;-84
2021/05/13 08:54:20;;;;;;;1.08;0.40;;;19.30;51.80;;;;;;5063630;28;20024;-85
2021/05/13 08:56:47;;;;;;;5.63;1.15;;;19.30;50.20;;;;;;5058357;28;20159;-84
2021/05/13 08:59:15;;;;;;;3.35;0.77;;;19.20;50.50;;;;;;5061892;28;20028;-84
2021/05/13 09:01:54;;;;;;;3.05;0.52;;;19.30;52.40;;;;;;5058975;28;20012;-84
2021/05/13 09:04:20;;;;;;;2.17;0.32;;;19.40;53.70;;;;;;5062202;28;20373;-85
2021/05/13 09:06:46;;;;;;;1.95;0.50;;;19.40;51.30;;;;;;5057926;28;20024;-84
2021/05/13 09:09:19;;;;;;;3.38;0.52;;;19.50;51.30;;;;;;5059183;28;20033;-85
2021/05/13 09:12:01;;;;;;;0.98;0.60;;;19.60;52.70;;;;;;5056706;28;22087;-85
2021/05/13 09:14:32;;;;;;;2.58;0.60;;;19.70;51.90;;;;;;5062141;28;20028;-87
2021/05/13 09:16:59;;;;;;;1.70;0.70;;;19.80;51.30;;;;;;5061967;28;20671;-86
2021/05/13 09:19:31;;;;;;;1.55;0.55;;;19.70;51.20;;;;;;5061704;28;20039;-85
2021/05/13 09:22:09;;;;;;;2.72;0.55;;;19.70;52.00;;;;;;5056335;28;20045;-84
2021/05/13 09:24:42;;;;;;;3.75;0.50;;;19.70;51.10;;;;;;5062144;28;20017;-84
2021/05/13 09:27:19;;;;;;;2.55;0.50;;;19.70;53.50;;;;;;5057540;28;20033;-83
2021/05/13 09:29:46;;;;;;;5.93;0.70;;;19.70;52.00;;;;;;5061079;28;20043;-84
2021/05/13 09:32:20;;;;;;;1.77;0.50;;;19.70;53.60;;;;;;5062069;28;20051;-85
2021/05/13 09:34:46;;;;;;;1.40;0.47;;;19.80;50.20;;;;;;5062447;28;20082;-85
2021/05/13 09:37:13;;;;;;;4.55;0.60;;;19.80;50.70;;;;;;5061571;28;20495;-84
2021/05/13 09:39:49;;;;;;;1.15;0.38;;;19.80;52.50;;;;;;5058191;28;20070;-85
2021/05/13 09:42:19;;;;;;;3.17;0.60;;;19.80;52.80;;;;;;5061874;28;20090;-85
2021/05/13 09:44:48;;;;;;;2.13;0.40;;;19.70;51.40;;;;;;5060853;28;20021;-85
2021/05/13 09:47:28;;;;;;;2.88;0.57;;;19.80;51.90;;;;;;5061876;28;20153;-84
2021/05/13 09:49:54;;;;;;;2.00;0.45;;;19.60;49.90;;;;;;5062935;28;20036;-85
2021/05/13 09:52:46;;;;;;;2.75;0.45;;;19.70;52.70;;;;;;5055426;28;20040;-83
2021/05/13 09:55:33;;;;;;;2.15;0.50;;;19.90;51.70;;;;;;5054363;28;20104;-84
2021/05/13 09:58:00;;;;;;;1.40;0.32;;;19.90;48.60;;;;;;5059649;28;20465;-84
2021/05/13 10:00:33;;;;;;;1.98;0.40;;;20.00;49.80;;;;;;5056054;28;20426;-85
2021/05/13 10:02:59;;;;;;;0.70;0.30;;;20.10;49.50;;;;;;5061446;28;20059;-85
2021/05/13 10:05:25;;;;;;;0.98;0.35;;;20.30;51.70;;;;;;5061456;28;20086;-85
2021/05/13 10:07:52;;;;;;;1.35;0.40;;;20.40;49.50;;;;;;5050451;28;20037;-84
2021/05/13 10:10:18;;;;;;;4.18;0.47;;;20.50;48.50;;;;;;5064341;28;20024;-85
2021/05/13 10:12:44;;;;;;;3.05;0.60;;;20.50;48.40;;;;;;5061283;28;20034;-83
2021/05/13 10:15:10;;;;;;;3.67;0.50;;;20.60;47.30;;;;;;5059194;28;20029;-84
2021/05/13 10:17:44;;;;;;;5.28;0.57;;;20.50;48.80;;;;;;5057399;28;20559;-85
2021/05/13 10:20:10;;;;;;;2.60;0.40;;;20.60;48.70;;;;;;5081711;28;20012;-85
2021/05/13 10:22:36;;;;;;;3.15;0.50;;;20.50;50.20;;;;;;5064496;28;20463;-85
2021/05/13 10:25:34;;;;;;;2.72;0.60;;;20.50;48.10;;;;;;5057977;28;20020;-85
2021/05/13 10:28:04;;;;;;;2.67;0.60;;;20.40;50.30;;;;;;5053016;28;20375;-85
2021/05/13 10:30:35;;;;;;;2.50;0.60;;;20.50;48.90;;;;;;5061779;28;20021;-83
2021/05/13 10:33:11;;;;;;;1.63;0.32;;;20.60;47.90;;;;;;5062675;28;20042;-84
2021/05/13 10:35:38;;;;;;;1.42;0.55;;;20.70;48.80;;;;;;5062777;28;20491;-85
2021/05/13 10:38:10;;;;;;;4.55;0.75;;;20.60;47.90;;;;;;5062801;28;20027;-85
2021/05/13 10:43:08;;;;;;;3.70;0.73;;;20.60;50.80;;;;;;5062822;28;20055;-86
2021/05/13 10:45:42;;;;;;;2.00;0.50;;;20.60;48.60;;;;;;5063619;28;20036;-85
2021/05/13 10:48:37;;;;;;;2.75;0.35;;;20.70;49.00;;;;;;5062411;28;20086;-85
2021/05/13 10:51:09;;;;;;;2.42;0.75;;;20.60;47.20;;;;;;5062157;28;20020;-84
2021/05/13 10:53:34;;;;;;;3.13;0.50;;;20.40;47.00;;;;;;5062881;28;20032;-85
2021/05/13 10:56:19;;;;;;;3.40;0.50;;;20.30;48.40;;;;;;5064798;28;20082;-85
2021/05/13 10:58:57;;;;;;;1.35;0.60;;;20.40;49.10;;;;;;5061073;28;20024;-85
2021/05/13 11:01:35;;;;;;;2.35;0.40;;;20.60;48.70;;;;;;5059026;28;20465;-85
2021/05/13 11:06:51;;;;;;;5.05;0.70;;;20.80;45.60;;;;;;5056252;28;20040;-86
2021/05/13 11:09:39;;;;;;;5.35;0.47;;;20.80;44.60;;;;;;5060239;28;20020;-86
2021/05/13 11:12:13;;;;;;;7.43;0.52;;;20.80;45.20;;;;;;5063816;28;20051;-86
2021/05/13 11:18:03;;;;;;;3.40;0.43;;;20.80;45.90;;;;;;5064964;28;20052;-85
2021/05/13 11:20:31;;;;;;;3.25;0.63;;;20.80;46.60;;;;;;5046856;28;20120;-86
2021/05/13 11:23:16;;;;;;;3.53;0.40;;;20.80;46.40;;;;;;5060193;28;20049;-86
2021/05/13 11:25:42;;;;;;;19.55;2.42;;;20.80;45.80;;;;;;5066643;28;20032;-85
2021/05/13 11:28:21;;;;;;;1.25;0.30;;;20.90;46.30;;;;;;5063233;28;20123;-86
2021/05/13 11:30:47;;;;;;;1.98;0.52;;;20.80;44.80;;;;;;5061770;28;20541;-85
2021/05/13 11:33:14;;;;;;;3.42;0.63;;;20.80;44.20;;;;;;5061607;28;21813;-85
2021/05/13 11:35:40;;;;;;;3.15;0.50;;;20.80;46.20;;;;;;5064007;28;20027;-85
2021/05/13 11:38:20;;;;;;;3.58;0.50;;;20.80;43.80;;;;;;5060701;28;20100;-85
2021/05/13 11:40:47;;;;;;;3.63;0.50;;;20.80;45.30;;;;;;5065068;28;20132;-85
2021/05/13 11:43:25;;;;;;;1.60;0.40;;;20.90;45.70;;;;;;5059763;28;20024;-85
2021/05/13 11:45:53;;;;;;;1.88;0.40;;;20.80;44.00;;;;;;5079833;28;20122;-86
2021/05/13 11:48:31;;;;;;;141.88;7.57;;;20.80;46.10;;;;;;5056461;28;20044;-86
2021/05/13 11:51:02;;;;;;;4.70;0.73;;;20.90;47.20;;;;;;5062247;28;20086;-85
2021/05/13 11:53:28;;;;;;;3.53;0.60;;;21.10;47.00;;;;;;5058601;28;20028;-85
2021/05/13 11:55:55;;;;;;;2.83;0.60;;;21.10;46.20;;;;;;5057647;28;20389;-85
2021/05/13 11:58:42;;;;;;;4.13;0.80;;;21.20;45.50;;;;;;5059053;28;20032;-85
2021/05/13 12:01:19;;;;;;;5.63;1.20;;;21.20;43.30;;;;;;5058405;28;20033;-86
2021/05/13 12:03:47;;;;;;;3.22;0.40;;;21.10;44.30;;;;;;5057913;28;20081;-86
2021/05/13 12:06:13;;;;;;;3.83;0.50;;;21.20;45.50;;;;;;5059198;28;20103;-86
2021/05/13 12:08:38;;;;;;;5.07;0.82;;;21.20;43.60;;;;;;5065073;28;20045;-86
2021/05/13 12:11:22;;;;;;;1.90;0.40;;;21.20;43.60;;;;;;5059887;28;20032;-87
2021/05/13 12:13:50;;;;;;;1.25;0.40;;;21.20;41.70;;;;;;5058465;28;20502;-87
2021/05/13 12:16:17;;;;;;;3.65;0.63;;;21.20;41.90;;;;;;5058151;28;20057;-85
2021/05/13 12:18:44;;;;;;;2.28;0.73;;;21.10;44.20;;;;;;5057101;28;20024;-88
2021/05/13 12:21:13;;;;;;;3.65;0.65;;;21.20;46.30;;;;;;5064259;28;20119;-86
2021/05/13 12:23:40;;;;;;;10.75;1.98;;;21.20;47.40;;;;;;5060411;28;20538;-86
2021/05/13 12:26:08;;;;;;;2.88;0.47;;;21.10;46.40;;;;;;5057259;28;20045;-86
2021/05/13 12:28:36;;;;;;;1.85;0.43;;;21.10;45.90;;;;;;5058189;28;20032;-86
2021/05/13 12:31:01;;;;;;;2.40;0.50;;;21.10;45.60;;;;;;5062802;28;20506;-85
2021/05/13 12:33:30;;;;;;;3.13;1.17;;;21.20;48.40;;;;;;5059730;28;20044;-86
2021/05/13 12:35:56;;;;;;;3.67;0.50;;;21.20;46.40;;;;;;5056083;28;20028;-86
2021/05/13 12:38:24;;;;;;;3.88;0.50;;;21.30;45.20;;;;;;5059235;28;20031;-85
2021/05/13 12:41:14;;;;;;;3.00;0.43;;;21.30;44.90;;;;;;5058907;28;20036;-85
2021/05/13 12:43:40;;;;;;;4.68;0.98;;;21.30;45.30;;;;;;5063774;28;20054;-86
2021/05/13 12:46:27;;;;;;;4.65;0.85;;;21.40;45.90;;;;;;5058145;28;20025;-85
2021/05/13 12:48:53;;;;;;;6.72;0.70;;;21.40;46.40;;;;;;5057206;28;20040;-87
2021/05/13 12:51:25;;;;;;;1.85;0.52;;;21.40;46.10;;;;;;5064502;28;20036;-86
2021/05/13 12:53:52;;;;;;;5.25;0.95;;;21.40;46.40;;;;;;5059412;28;20024;-86
2021/05/13 12:56:34;;;;;;;2.08;0.50;;;21.50;47.50;;;;;;5053854;28;20099;-85
2021/05/13 12:59:13;;;;;;;5.68;0.52;;;21.50;46.50;;;;;;5056638;28;20048;-84
2021/05/13 13:01:43;;;;;;;2.42;0.55;;;21.60;44.10;;;;;;5063316;28;20052;-85
2021/05/13 13:04:12;;;;;;;5.60;0.73;;;21.50;43.60;;;;;;5060494;28;20035;-85
2021/05/13 13:06:48;;;;;;;4.28;0.60;;;21.50;43.90;;;;;;5058660;28;20094;-87
2021/05/13 13:09:33;;;;;;;3.38;0.60;;;21.50;43.60;;;;;;5055873;28;20139;-86